sensor_id;sensor_type;location;lat;lon;timestamp;temperature;humidity
47310;DHT22;33046;52.270;6.832;2022-07-10T00:00:13;19.00;72.50
47310;DHT22;33046;52.270;6.832;2022-07-10T00:02:20;19.00;72.60
47310;DHT22;33046;52.270;6.832;2022-07-10T00:04:27;19.00;72.80
47310;DHT22;33046;52.270;6.832;2022-07-10T00:06:34;18.90;72.80
47310;DHT22;33046;52.270;6.832;2022-07-10T00:08:41;18.90;72.80
47310;DHT22;33046;52.270;6.832;2022-07-10T00:10:48;18.90;73.00
47310;DHT22;33046;52.270;6.832;2022-07-10T00:12:56;18.90;73.20
47310;DHT22;33046;52.270;6.832;2022-07-10T00:15:04;18.90;73.20
47310;DHT22;33046;52.270;6.832;2022-07-10T00:17:11;18.90;73.10
47310;DHT22;33046;52.270;6.832;2022-07-10T00:19:18;18.80;73.50
47310;DHT22;33046;52.270;6.832;2022-07-10T00:21:24;18.80;73.50
47310;DHT22;33046;52.270;6.832;2022-07-10T00:23:31;18.70;73.50
47310;DHT22;33046;52.270;6.832;2022-07-10T00:25:38;18.70;73.60
47310;DHT22;33046;52.270;6.832;2022-07-10T00:27:45;18.70;73.70
47310;DHT22;33046;52.270;6.832;2022-07-10T00:29:53;18.70;73.90
47310;DHT22;33046;52.270;6.832;2022-07-10T00:32:00;18.60;73.70
47310;DHT22;33046;52.270;6.832;2022-07-10T00:34:06;18.60;73.90
47310;DHT22;33046;52.270;6.832;2022-07-10T00:36:13;18.60;74.20
47310;DHT22;33046;52.270;6.832;2022-07-10T00:38:20;18.60;74.20
47310;DHT22;33046;52.270;6.832;2022-07-10T00:40:27;18.60;74.40
47310;DHT22;33046;52.270;6.832;2022-07-10T00:42:34;18.60;74.20
47310;DHT22;33046;52.270;6.832;2022-07-10T00:44:42;18.50;74.20
47310;DHT22;33046;52.270;6.832;2022-07-10T00:46:50;18.50;74.30
47310;DHT22;33046;52.270;6.832;2022-07-10T00:48:58;18.50;74.40
47310;DHT22;33046;52.270;6.832;2022-07-10T00:51:05;18.50;74.30
47310;DHT22;33046;52.270;6.832;2022-07-10T00:53:12;18.50;74.40
47310;DHT22;33046;52.270;6.832;2022-07-10T00:55:19;18.40;74.40
47310;DHT22;33046;52.270;6.832;2022-07-10T00:57:27;18.40;74.50
47310;DHT22;33046;52.270;6.832;2022-07-10T00:59:34;18.50;74.60
47310;DHT22;33046;52.270;6.832;2022-07-10T01:01:41;18.40;74.60
47310;DHT22;33046;52.270;6.832;2022-07-10T01:03:49;18.40;74.60
47310;DHT22;33046;52.270;6.832;2022-07-10T01:05:56;18.40;74.60
47310;DHT22;33046;52.270;6.832;2022-07-10T01:08:04;18.40;74.60
47310;DHT22;33046;52.270;6.832;2022-07-10T01:10:11;18.40;74.60
47310;DHT22;33046;52.270;6.832;2022-07-10T01:12:17;18.40;74.60
47310;DHT22;33046;52.270;6.832;2022-07-10T01:14:25;18.40;74.80
47310;DHT22;33046;52.270;6.832;2022-07-10T01:16:32;18.40;74.70
47310;DHT22;33046;52.270;6.832;2022-07-10T01:18:39;18.40;74.70
47310;DHT22;33046;52.270;6.832;2022-07-10T01:20:53;18.40;74.70
47310;DHT22;33046;52.270;6.832;2022-07-10T01:23:01;18.40;74.70
47310;DHT22;33046;52.270;6.832;2022-07-10T01:25:08;18.40;74.80
47310;DHT22;33046;52.270;6.832;2022-07-10T01:27:15;18.30;74.80
47310;DHT22;33046;52.270;6.832;2022-07-10T01:29:22;18.30;75.00
47310;DHT22;33046;52.270;6.832;2022-07-10T01:31:28;18.30;75.30
47310;DHT22;33046;52.270;6.832;2022-07-10T01:33:35;18.30;75.50
47310;DHT22;33046;52.270;6.832;2022-07-10T01:35:42;18.30;75.50
47310;DHT22;33046;52.270;6.832;2022-07-10T01:37:51;18.30;75.60
47310;DHT22;33046;52.270;6.832;2022-07-10T01:39:57;18.30;75.70
47310;DHT22;33046;52.270;6.832;2022-07-10T01:42:04;18.30;75.80
47310;DHT22;33046;52.270;6.832;2022-07-10T01:44:11;18.30;76.00
47310;DHT22;33046;52.270;6.832;2022-07-10T01:46:18;18.30;76.20
47310;DHT22;33046;52.270;6.832;2022-07-10T01:48:25;18.20;76.10
47310;DHT22;33046;52.270;6.832;2022-07-10T01:50:32;18.20;76.10
47310;DHT22;33046;52.270;6.832;2022-07-10T01:52:39;18.10;76.40
47310;DHT22;33046;52.270;6.832;2022-07-10T01:54:47;18.10;76.70
47310;DHT22;33046;52.270;6.832;2022-07-10T01:56:54;18.10;76.60
47310;DHT22;33046;52.270;6.832;2022-07-10T01:59:01;18.10;76.70
47310;DHT22;33046;52.270;6.832;2022-07-10T02:01:09;18.10;77.00
47310;DHT22;33046;52.270;6.832;2022-07-10T02:03:16;18.00;77.10
47310;DHT22;33046;52.270;6.832;2022-07-10T02:05:23;18.00;77.10
47310;DHT22;33046;52.270;6.832;2022-07-10T02:07:29;18.00;77.30
47310;DHT22;33046;52.270;6.832;2022-07-10T02:09:36;18.00;77.30
47310;DHT22;33046;52.270;6.832;2022-07-10T02:11:45;18.00;77.20
47310;DHT22;33046;52.270;6.832;2022-07-10T02:13:51;18.00;77.40
47310;DHT22;33046;52.270;6.832;2022-07-10T02:15:58;18.00;77.30
47310;DHT22;33046;52.270;6.832;2022-07-10T02:18:05;18.00;77.60
47310;DHT22;33046;52.270;6.832;2022-07-10T02:20:12;18.00;77.60
47310;DHT22;33046;52.270;6.832;2022-07-10T02:22:19;17.90;78.00
47310;DHT22;33046;52.270;6.832;2022-07-10T02:24:25;17.90;77.80
47310;DHT22;33046;52.270;6.832;2022-07-10T02:26:32;17.90;78.00
47310;DHT22;33046;52.270;6.832;2022-07-10T02:28:40;17.90;78.20
47310;DHT22;33046;52.270;6.832;2022-07-10T02:30:47;17.90;78.10
47310;DHT22;33046;52.270;6.832;2022-07-10T02:32:54;17.90;78.20
47310;DHT22;33046;52.270;6.832;2022-07-10T02:35:01;17.90;78.30
47310;DHT22;33046;52.270;6.832;2022-07-10T02:37:08;17.80;78.40
47310;DHT22;33046;52.270;6.832;2022-07-10T02:39:14;17.70;78.60
47310;DHT22;33046;52.270;6.832;2022-07-10T02:41:21;17.80;78.60
47310;DHT22;33046;52.270;6.832;2022-07-10T02:43:28;17.70;78.70
47310;DHT22;33046;52.270;6.832;2022-07-10T02:45:36;17.70;78.80
47310;DHT22;33046;52.270;6.832;2022-07-10T02:47:43;17.70;78.70
47310;DHT22;33046;52.270;6.832;2022-07-10T02:49:50;17.70;78.90
47310;DHT22;33046;52.270;6.832;2022-07-10T02:51:56;17.70;79.00
47310;DHT22;33046;52.270;6.832;2022-07-10T02:54:03;17.70;79.10
47310;DHT22;33046;52.270;6.832;2022-07-10T02:56:10;17.60;79.00
47310;DHT22;33046;52.270;6.832;2022-07-10T02:58:17;17.60;79.40
47310;DHT22;33046;52.270;6.832;2022-07-10T03:00:23;17.60;79.30
47310;DHT22;33046;52.270;6.832;2022-07-10T03:02:32;17.60;79.40
47310;DHT22;33046;52.270;6.832;2022-07-10T03:04:39;17.50;79.40
47310;DHT22;33046;52.270;6.832;2022-07-10T03:06:46;17.50;79.30
47310;DHT22;33046;52.270;6.832;2022-07-10T03:08:52;17.60;79.40
47310;DHT22;33046;52.270;6.832;2022-07-10T03:10:59;17.50;79.50
47310;DHT22;33046;52.270;6.832;2022-07-10T03:13:06;17.50;79.60
47310;DHT22;33046;52.270;6.832;2022-07-10T03:15:13;17.50;79.70
47310;DHT22;33046;52.270;6.832;2022-07-10T03:17:20;17.50;79.80
47310;DHT22;33046;52.270;6.832;2022-07-10T03:19:28;17.50;79.70
47310;DHT22;33046;52.270;6.832;2022-07-10T03:21:35;17.40;79.70
47310;DHT22;33046;52.270;6.832;2022-07-10T03:23:41;17.40;79.80
47310;DHT22;33046;52.270;6.832;2022-07-10T03:25:48;17.40;80.00
47310;DHT22;33046;52.270;6.832;2022-07-10T03:28:01;17.40;80.00
47310;DHT22;33046;52.270;6.832;2022-07-10T03:30:08;17.40;79.90
47310;DHT22;33046;52.270;6.832;2022-07-10T03:32:15;17.40;80.00
47310;DHT22;33046;52.270;6.832;2022-07-10T03:34:22;17.30;79.90
47310;DHT22;33046;52.270;6.832;2022-07-10T03:36:30;17.30;80.00
47310;DHT22;33046;52.270;6.832;2022-07-10T03:38:37;17.20;80.10
47310;DHT22;33046;52.270;6.832;2022-07-10T03:40:44;17.20;80.20
47310;DHT22;33046;52.270;6.832;2022-07-10T03:42:50;17.20;80.20
47310;DHT22;33046;52.270;6.832;2022-07-10T03:44:57;17.20;80.10
47310;DHT22;33046;52.270;6.832;2022-07-10T03:47:04;17.20;80.20
47310;DHT22;33046;52.270;6.832;2022-07-10T03:49:11;17.20;80.20
47310;DHT22;33046;52.270;6.832;2022-07-10T03:51:18;17.20;80.30
47310;DHT22;33046;52.270;6.832;2022-07-10T03:53:26;17.20;80.20
47310;DHT22;33046;52.270;6.832;2022-07-10T03:55:33;17.20;80.20
47310;DHT22;33046;52.270;6.832;2022-07-10T03:57:40;17.20;80.10
47310;DHT22;33046;52.270;6.832;2022-07-10T03:59:46;17.20;80.30
47310;DHT22;33046;52.270;6.832;2022-07-10T04:01:53;17.20;80.30
47310;DHT22;33046;52.270;6.832;2022-07-10T04:04:00;17.20;80.30
47310;DHT22;33046;52.270;6.832;2022-07-10T04:06:07;17.20;80.40
47310;DHT22;33046;52.270;6.832;2022-07-10T04:08:13;17.20;80.50
47310;DHT22;33046;52.270;6.832;2022-07-10T04:10:22;17.20;80.40
47310;DHT22;33046;52.270;6.832;2022-07-10T04:12:29;17.20;80.50
47310;DHT22;33046;52.270;6.832;2022-07-10T04:14:36;17.10;80.50
47310;DHT22;33046;52.270;6.832;2022-07-10T04:16:42;17.10;80.50
47310;DHT22;33046;52.270;6.832;2022-07-10T04:18:49;17.20;80.80
47310;DHT22;33046;52.270;6.832;2022-07-10T04:20:56;17.20;80.80
47310;DHT22;33046;52.270;6.832;2022-07-10T04:23:03;17.20;81.00
47310;DHT22;33046;52.270;6.832;2022-07-10T04:25:10;17.20;80.90
47310;DHT22;33046;52.270;6.832;2022-07-10T04:27:18;17.20;80.90
47310;DHT22;33046;52.270;6.832;2022-07-10T04:29:25;17.30;80.80
47310;DHT22;33046;52.270;6.832;2022-07-10T04:31:32;17.30;80.90
47310;DHT22;33046;52.270;6.832;2022-07-10T04:33:39;17.20;81.00
47310;DHT22;33046;52.270;6.832;2022-07-10T04:35:46;17.30;80.90
47310;DHT22;33046;52.270;6.832;2022-07-10T04:37:52;17.30;81.20
47310;DHT22;33046;52.270;6.832;2022-07-10T04:39:59;17.30;81.20
47310;DHT22;33046;52.270;6.832;2022-07-10T04:42:06;17.30;81.30
47310;DHT22;33046;52.270;6.832;2022-07-10T04:44:15;17.30;81.30
47310;DHT22;33046;52.270;6.832;2022-07-10T04:46:21;17.30;81.30
47310;DHT22;33046;52.270;6.832;2022-07-10T04:48:28;17.30;81.20
47310;DHT22;33046;52.270;6.832;2022-07-10T04:50:35;17.30;81.20
47310;DHT22;33046;52.270;6.832;2022-07-10T04:52:42;17.40;81.00
47310;DHT22;33046;52.270;6.832;2022-07-10T04:54:48;17.30;81.20
47310;DHT22;33046;52.270;6.832;2022-07-10T04:56:55;17.30;81.30
47310;DHT22;33046;52.270;6.832;2022-07-10T04:59:02;17.30;81.30
47310;DHT22;33046;52.270;6.832;2022-07-10T05:01:10;17.30;81.30
47310;DHT22;33046;52.270;6.832;2022-07-10T05:03:17;17.30;81.10
47310;DHT22;33046;52.270;6.832;2022-07-10T05:05:24;17.30;81.00
47310;DHT22;33046;52.270;6.832;2022-07-10T05:07:30;17.40;81.10
47310;DHT22;33046;52.270;6.832;2022-07-10T05:09:37;17.40;81.10
47310;DHT22;33046;52.270;6.832;2022-07-10T05:11:44;17.40;81.10
47310;DHT22;33046;52.270;6.832;2022-07-10T05:13:51;17.40;81.10
47310;DHT22;33046;52.270;6.832;2022-07-10T05:15:58;17.40;81.20
47310;DHT22;33046;52.270;6.832;2022-07-10T05:18:06;17.40;81.40
47310;DHT22;33046;52.270;6.832;2022-07-10T05:20:13;17.40;81.40
47310;DHT22;33046;52.270;6.832;2022-07-10T05:22:19;17.40;81.40
47310;DHT22;33046;52.270;6.832;2022-07-10T05:24:26;17.30;81.40
47310;DHT22;33046;52.270;6.832;2022-07-10T05:26:33;17.40;81.50
47310;DHT22;33046;52.270;6.832;2022-07-10T05:28:40;17.40;81.40
47310;DHT22;33046;52.270;6.832;2022-07-10T05:30:47;17.40;81.70
47310;DHT22;33046;52.270;6.832;2022-07-10T05:32:53;17.40;81.70
47310;DHT22;33046;52.270;6.832;2022-07-10T05:35:01;17.40;81.90
47310;DHT22;33046;52.270;6.832;2022-07-10T05:37:08;17.40;81.90
47310;DHT22;33046;52.270;6.832;2022-07-10T05:39:15;17.40;81.90
47310;DHT22;33046;52.270;6.832;2022-07-10T05:41:22;17.40;81.80
47310;DHT22;33046;52.270;6.832;2022-07-10T05:43:28;17.40;81.80
47310;DHT22;33046;52.270;6.832;2022-07-10T05:45:35;17.50;81.90
47310;DHT22;33046;52.270;6.832;2022-07-10T05:47:42;17.50;81.70
47310;DHT22;33046;52.270;6.832;2022-07-10T05:49:49;17.40;81.80
47310;DHT22;33046;52.270;6.832;2022-07-10T05:51:57;17.50;81.90
47310;DHT22;33046;52.270;6.832;2022-07-10T05:54:04;17.50;82.00
47310;DHT22;33046;52.270;6.832;2022-07-10T05:56:11;17.50;82.20
47310;DHT22;33046;52.270;6.832;2022-07-10T05:58:17;17.50;81.90
47310;DHT22;33046;52.270;6.832;2022-07-10T06:00:24;17.50;82.00
47310;DHT22;33046;52.270;6.832;2022-07-10T06:02:31;17.50;82.10
47310;DHT22;33046;52.270;6.832;2022-07-10T06:04:38;17.50;82.20
47310;DHT22;33046;52.270;6.832;2022-07-10T06:06:45;17.60;82.30
47310;DHT22;33046;52.270;6.832;2022-07-10T06:08:53;17.50;82.30
47310;DHT22;33046;52.270;6.832;2022-07-10T06:11:00;17.50;82.30
47310;DHT22;33046;52.270;6.832;2022-07-10T06:13:06;17.60;82.50
47310;DHT22;33046;52.270;6.832;2022-07-10T06:15:13;17.60;82.60
47310;DHT22;33046;52.270;6.832;2022-07-10T06:17:24;17.60;82.90
47310;DHT22;33046;52.270;6.832;2022-07-10T06:19:31;17.70;82.90
47310;DHT22;33046;52.270;6.832;2022-07-10T06:21:37;17.60;82.90
47310;DHT22;33046;52.270;6.832;2022-07-10T06:23:44;17.70;82.90
47310;DHT22;33046;52.270;6.832;2022-07-10T06:25:52;17.70;82.60
47310;DHT22;33046;52.270;6.832;2022-07-10T06:27:59;17.70;82.50
47310;DHT22;33046;52.270;6.832;2022-07-10T06:30:06;17.70;82.50
47310;DHT22;33046;52.270;6.832;2022-07-10T06:32:13;17.70;82.50
47310;DHT22;33046;52.270;6.832;2022-07-10T06:34:20;17.80;82.30
47310;DHT22;33046;52.270;6.832;2022-07-10T06:36:27;17.80;82.10
47310;DHT22;33046;52.270;6.832;2022-07-10T06:38:37;17.90;82.20
47310;DHT22;33046;52.270;6.832;2022-07-10T06:40:45;17.90;82.10
47310;DHT22;33046;52.270;6.832;2022-07-10T06:42:55;18.00;82.10
47310;DHT22;33046;52.270;6.832;2022-07-10T06:45:01;18.10;82.00
47310;DHT22;33046;52.270;6.832;2022-07-10T06:47:09;18.10;82.00
47310;DHT22;33046;52.270;6.832;2022-07-10T06:49:16;18.20;82.10
47310;DHT22;33046;52.270;6.832;2022-07-10T06:51:23;18.30;81.90
47310;DHT22;33046;52.270;6.832;2022-07-10T06:53:29;18.30;81.80
47310;DHT22;33046;52.270;6.832;2022-07-10T06:55:37;18.50;81.70
47310;DHT22;33046;52.270;6.832;2022-07-10T06:57:44;18.50;81.70
47310;DHT22;33046;52.270;6.832;2022-07-10T06:59:52;18.60;81.80
47310;DHT22;33046;52.270;6.832;2022-07-10T07:01:59;18.60;81.60
47310;DHT22;33046;52.270;6.832;2022-07-10T07:04:06;18.60;81.90
47310;DHT22;33046;52.270;6.832;2022-07-10T07:06:13;18.70;82.40
47310;DHT22;33046;52.270;6.832;2022-07-10T07:08:19;18.60;82.30
47310;DHT22;33046;52.270;6.832;2022-07-10T07:10:26;18.60;82.60
47310;DHT22;33046;52.270;6.832;2022-07-10T07:12:33;18.60;82.80
47310;DHT22;33046;52.270;6.832;2022-07-10T07:14:40;18.60;83.60
47310;DHT22;33046;52.270;6.832;2022-07-10T07:16:51;18.60;84.30
47310;DHT22;33046;52.270;6.832;2022-07-10T07:18:58;18.60;84.40
47310;DHT22;33046;52.270;6.832;2022-07-10T07:21:05;18.60;84.50
47310;DHT22;33046;52.270;6.832;2022-07-10T07:23:11;18.60;84.80
47310;DHT22;33046;52.270;6.832;2022-07-10T07:25:18;18.60;85.10
47310;DHT22;33046;52.270;6.832;2022-07-10T07:27:26;18.50;85.10
47310;DHT22;33046;52.270;6.832;2022-07-10T07:29:32;18.60;85.10
47310;DHT22;33046;52.270;6.832;2022-07-10T07:31:39;18.50;85.30
47310;DHT22;33046;52.270;6.832;2022-07-10T07:33:47;18.50;85.50
47310;DHT22;33046;52.270;6.832;2022-07-10T07:35:54;18.60;85.20
47310;DHT22;33046;52.270;6.832;2022-07-10T07:38:02;18.60;85.00
47310;DHT22;33046;52.270;6.832;2022-07-10T07:40:10;18.60;85.40
47310;DHT22;33046;52.270;6.832;2022-07-10T07:42:17;18.60;85.70
47310;DHT22;33046;52.270;6.832;2022-07-10T07:44:24;18.60;85.90
47310;DHT22;33046;52.270;6.832;2022-07-10T07:46:33;18.50;86.00
47310;DHT22;33046;52.270;6.832;2022-07-10T07:48:40;18.60;86.20
47310;DHT22;33046;52.270;6.832;2022-07-10T07:50:48;18.60;86.00
47310;DHT22;33046;52.270;6.832;2022-07-10T07:52:55;18.60;86.30
47310;DHT22;33046;52.270;6.832;2022-07-10T07:55:02;18.60;86.40
47310;DHT22;33046;52.270;6.832;2022-07-10T07:57:09;18.60;86.70
47310;DHT22;33046;52.270;6.832;2022-07-10T07:59:16;18.60;86.60
47310;DHT22;33046;52.270;6.832;2022-07-10T08:01:22;18.60;87.00
47310;DHT22;33046;52.270;6.832;2022-07-10T08:03:29;18.60;88.00
47310;DHT22;33046;52.270;6.832;2022-07-10T08:05:49;18.60;89.30
47310;DHT22;33046;52.270;6.832;2022-07-10T08:07:57;18.50;90.50
47310;DHT22;33046;52.270;6.832;2022-07-10T08:10:07;18.50;91.00
47310;DHT22;33046;52.270;6.832;2022-07-10T08:12:14;18.40;91.50
47310;DHT22;33046;52.270;6.832;2022-07-10T08:14:21;18.50;91.70
47310;DHT22;33046;52.270;6.832;2022-07-10T08:16:28;18.50;92.20
47310;DHT22;33046;52.270;6.832;2022-07-10T08:18:35;18.50;92.20
47310;DHT22;33046;52.270;6.832;2022-07-10T08:20:42;18.60;92.50
47310;DHT22;33046;52.270;6.832;2022-07-10T08:22:50;18.60;92.40
47310;DHT22;33046;52.270;6.832;2022-07-10T08:25:00;18.70;92.40
47310;DHT22;33046;52.270;6.832;2022-07-10T08:27:07;18.80;92.50
47310;DHT22;33046;52.270;6.832;2022-07-10T08:29:14;18.90;92.50
47310;DHT22;33046;52.270;6.832;2022-07-10T08:31:21;19.00;92.90
47310;DHT22;33046;52.270;6.832;2022-07-10T08:33:28;19.10;92.70
47310;DHT22;33046;52.270;6.832;2022-07-10T08:35:34;19.10;92.60
47310;DHT22;33046;52.270;6.832;2022-07-10T08:37:44;19.20;92.40
47310;DHT22;33046;52.270;6.832;2022-07-10T08:39:52;19.30;92.30
47310;DHT22;33046;52.270;6.832;2022-07-10T08:41:59;19.40;92.00
47310;DHT22;33046;52.270;6.832;2022-07-10T08:44:06;19.60;92.20
47310;DHT22;33046;52.270;6.832;2022-07-10T08:46:13;19.70;92.20
47310;DHT22;33046;52.270;6.832;2022-07-10T08:48:23;19.80;91.70
47310;DHT22;33046;52.270;6.832;2022-07-10T08:50:32;19.90;91.40
47310;DHT22;33046;52.270;6.832;2022-07-10T08:52:43;19.90;91.10
47310;DHT22;33046;52.270;6.832;2022-07-10T08:54:51;20.00;90.60
47310;DHT22;33046;52.270;6.832;2022-07-10T08:56:59;20.00;90.30
47310;DHT22;33046;52.270;6.832;2022-07-10T08:59:07;20.00;89.70
47310;DHT22;33046;52.270;6.832;2022-07-10T09:01:14;20.00;89.80
47310;DHT22;33046;52.270;6.832;2022-07-10T09:03:21;20.00;89.60
47310;DHT22;33046;52.270;6.832;2022-07-10T09:05:28;20.10;89.60
47310;DHT22;33046;52.270;6.832;2022-07-10T09:07:35;20.00;90.00
47310;DHT22;33046;52.270;6.832;2022-07-10T09:09:53;20.00;89.40
47310;DHT22;33046;52.270;6.832;2022-07-10T09:12:00;20.00;90.00
47310;DHT22;33046;52.270;6.832;2022-07-10T09:14:08;20.00;89.50
47310;DHT22;33046;52.270;6.832;2022-07-10T09:16:21;20.00;89.00
47310;DHT22;33046;52.270;6.832;2022-07-10T09:18:28;20.00;88.60
47310;DHT22;33046;52.270;6.832;2022-07-10T09:20:36;20.10;88.20
47310;DHT22;33046;52.270;6.832;2022-07-10T09:22:43;20.00;88.40
47310;DHT22;33046;52.270;6.832;2022-07-10T09:25:18;20.00;89.60
47310;DHT22;33046;52.270;6.832;2022-07-10T09:27:25;20.10;89.00
47310;DHT22;33046;52.270;6.832;2022-07-10T09:29:44;20.10;89.30
47310;DHT22;33046;52.270;6.832;2022-07-10T09:31:52;20.00;89.00
47310;DHT22;33046;52.270;6.832;2022-07-10T09:33:59;20.00;89.90
47310;DHT22;33046;52.270;6.832;2022-07-10T09:36:07;20.00;90.70
47310;DHT22;33046;52.270;6.832;2022-07-10T09:38:14;19.90;91.00
47310;DHT22;33046;52.270;6.832;2022-07-10T09:40:27;19.90;91.20
47310;DHT22;33046;52.270;6.832;2022-07-10T09:42:35;19.90;91.50
47310;DHT22;33046;52.270;6.832;2022-07-10T09:44:42;19.90;91.30
47310;DHT22;33046;52.270;6.832;2022-07-10T09:46:48;19.90;91.40
47310;DHT22;33046;52.270;6.832;2022-07-10T09:49:01;19.90;91.60
47310;DHT22;33046;52.270;6.832;2022-07-10T09:51:10;19.80;91.60
47310;DHT22;33046;52.270;6.832;2022-07-10T09:53:17;19.90;91.80
47310;DHT22;33046;52.270;6.832;2022-07-10T09:55:26;19.80;91.70
47310;DHT22;33046;52.270;6.832;2022-07-10T09:57:34;19.80;91.90
47310;DHT22;33046;52.270;6.832;2022-07-10T09:59:41;19.90;92.00
47310;DHT22;33046;52.270;6.832;2022-07-10T10:01:49;19.90;91.80
47310;DHT22;33046;52.270;6.832;2022-07-10T10:03:58;20.00;91.50
47310;DHT22;33046;52.270;6.832;2022-07-10T10:06:11;20.10;91.10
47310;DHT22;33046;52.270;6.832;2022-07-10T10:08:21;20.20;91.00
47310;DHT22;33046;52.270;6.832;2022-07-10T10:10:32;20.30;91.10
47310;DHT22;33046;52.270;6.832;2022-07-10T10:12:46;20.40;90.80
47310;DHT22;33046;52.270;6.832;2022-07-10T10:17:24;20.40;90.70
47310;DHT22;33046;52.270;6.832;2022-07-10T10:22:24;20.60;90.00
47310;DHT22;33046;52.270;6.832;2022-07-10T10:24:32;20.70;89.50
47310;DHT22;33046;52.270;6.832;2022-07-10T10:26:41;20.70;89.30
47310;DHT22;33046;52.270;6.832;2022-07-10T10:28:49;20.70;89.50
47310;DHT22;33046;52.270;6.832;2022-07-10T10:30:59;20.70;88.80
47310;DHT22;33046;52.270;6.832;2022-07-10T10:33:40;20.70;86.80
47310;DHT22;33046;52.270;6.832;2022-07-10T10:35:49;20.60;86.60
47310;DHT22;33046;52.270;6.832;2022-07-10T10:37:56;20.60;86.70
47310;DHT22;33046;52.270;6.832;2022-07-10T10:40:04;20.70;87.10
47310;DHT22;33046;52.270;6.832;2022-07-10T10:42:32;20.60;87.20
47310;DHT22;33046;52.270;6.832;2022-07-10T10:44:38;20.50;88.60
47310;DHT22;33046;52.270;6.832;2022-07-10T10:46:54;20.40;90.00
47310;DHT22;33046;52.270;6.832;2022-07-10T10:49:05;20.40;90.50
47310;DHT22;33046;52.270;6.832;2022-07-10T10:51:12;20.30;91.10
47310;DHT22;33046;52.270;6.832;2022-07-10T10:53:21;20.30;91.90
47310;DHT22;33046;52.270;6.832;2022-07-10T10:55:28;20.30;91.30
47310;DHT22;33046;52.270;6.832;2022-07-10T10:57:38;20.20;90.90
47310;DHT22;33046;52.270;6.832;2022-07-10T10:59:45;20.20;91.20
47310;DHT22;33046;52.270;6.832;2022-07-10T11:02:20;20.10;91.00
47310;DHT22;33046;52.270;6.832;2022-07-10T11:04:27;20.00;91.10
47310;DHT22;33046;52.270;6.832;2022-07-10T11:06:39;20.00;91.50
47310;DHT22;33046;52.270;6.832;2022-07-10T11:08:46;20.00;91.60
47310;DHT22;33046;52.270;6.832;2022-07-10T11:10:52;20.10;91.40
47310;DHT22;33046;52.270;6.832;2022-07-10T11:13:01;20.10;91.10
47310;DHT22;33046;52.270;6.832;2022-07-10T11:15:13;20.10;91.00
47310;DHT22;33046;52.270;6.832;2022-07-10T11:17:27;20.20;91.20
47310;DHT22;33046;52.270;6.832;2022-07-10T11:19:34;20.30;91.40
47310;DHT22;33046;52.270;6.832;2022-07-10T11:21:46;20.30;91.20
47310;DHT22;33046;52.270;6.832;2022-07-10T11:23:56;20.50;91.40
47310;DHT22;33046;52.270;6.832;2022-07-10T11:26:06;20.70;91.20
47310;DHT22;33046;52.270;6.832;2022-07-10T11:28:17;20.70;91.00
47310;DHT22;33046;52.270;6.832;2022-07-10T11:30:28;20.80;91.00
47310;DHT22;33046;52.270;6.832;2022-07-10T11:32:34;20.90;91.10
47310;DHT22;33046;52.270;6.832;2022-07-10T11:34:41;21.00;92.00
47310;DHT22;33046;52.270;6.832;2022-07-10T11:36:48;21.00;90.80
47310;DHT22;33046;52.270;6.832;2022-07-10T11:38:59;21.00;90.20
47310;DHT22;33046;52.270;6.832;2022-07-10T11:41:12;21.00;90.30
47310;DHT22;33046;52.270;6.832;2022-07-10T11:43:21;21.00;90.50
47310;DHT22;33046;52.270;6.832;2022-07-10T11:45:29;20.90;90.70
47310;DHT22;33046;52.270;6.832;2022-07-10T11:47:38;20.80;90.70
47310;DHT22;33046;52.270;6.832;2022-07-10T11:49:45;20.80;91.10
47310;DHT22;33046;52.270;6.832;2022-07-10T11:51:52;20.70;91.20
47310;DHT22;33046;52.270;6.832;2022-07-10T11:54:01;20.60;91.60
47310;DHT22;33046;52.270;6.832;2022-07-10T11:56:08;20.60;91.90
47310;DHT22;33046;52.270;6.832;2022-07-10T11:58:16;20.60;92.10
47310;DHT22;33046;52.270;6.832;2022-07-10T12:00:27;20.60;92.20
47310;DHT22;33046;52.270;6.832;2022-07-10T12:02:34;20.60;92.50
47310;DHT22;33046;52.270;6.832;2022-07-10T12:04:41;20.60;92.60
47310;DHT22;33046;52.270;6.832;2022-07-10T12:06:48;20.60;92.80
47310;DHT22;33046;52.270;6.832;2022-07-10T12:08:55;20.50;92.60
47310;DHT22;33046;52.270;6.832;2022-07-10T12:11:11;20.50;92.80
47310;DHT22;33046;52.270;6.832;2022-07-10T12:13:18;20.50;92.70
47310;DHT22;33046;52.270;6.832;2022-07-10T12:15:35;20.40;92.80
47310;DHT22;33046;52.270;6.832;2022-07-10T12:17:50;20.50;93.00
47310;DHT22;33046;52.270;6.832;2022-07-10T12:19:57;20.60;93.00
47310;DHT22;33046;52.270;6.832;2022-07-10T12:22:05;20.70;92.80
47310;DHT22;33046;52.270;6.832;2022-07-10T12:24:13;20.80;93.20
47310;DHT22;33046;52.270;6.832;2022-07-10T12:26:21;20.90;93.70
47310;DHT22;33046;52.270;6.832;2022-07-10T12:28:28;21.00;93.70
47310;DHT22;33046;52.270;6.832;2022-07-10T12:30:43;21.00;92.70
47310;DHT22;33046;52.270;6.832;2022-07-10T12:32:50;21.10;92.60
47310;DHT22;33046;52.270;6.832;2022-07-10T12:34:58;21.00;92.80
47310;DHT22;33046;52.270;6.832;2022-07-10T12:37:07;21.00;93.20
47310;DHT22;33046;52.270;6.832;2022-07-10T12:39:16;21.00;92.50
47310;DHT22;33046;52.270;6.832;2022-07-10T12:41:23;20.90;92.60
47310;DHT22;33046;52.270;6.832;2022-07-10T12:43:30;20.80;92.90
47310;DHT22;33046;52.270;6.832;2022-07-10T12:45:37;20.70;93.30
47310;DHT22;33046;52.270;6.832;2022-07-10T12:47:45;20.80;93.20
47310;DHT22;33046;52.270;6.832;2022-07-10T12:49:54;20.80;93.70
47310;DHT22;33046;52.270;6.832;2022-07-10T12:52:01;20.90;94.10
47310;DHT22;33046;52.270;6.832;2022-07-10T12:54:36;20.80;93.70
47310;DHT22;33046;52.270;6.832;2022-07-10T12:56:42;21.00;93.40
47310;DHT22;33046;52.270;6.832;2022-07-10T12:58:49;21.00;93.50
47310;DHT22;33046;52.270;6.832;2022-07-10T13:00:56;21.10;93.20
47310;DHT22;33046;52.270;6.832;2022-07-10T13:03:06;21.10;93.30
47310;DHT22;33046;52.270;6.832;2022-07-10T13:05:25;21.20;93.30
47310;DHT22;33046;52.270;6.832;2022-07-10T13:07:33;21.20;93.30
47310;DHT22;33046;52.270;6.832;2022-07-10T13:09:40;21.20;93.00
47310;DHT22;33046;52.270;6.832;2022-07-10T13:11:47;21.10;92.80
47310;DHT22;33046;52.270;6.832;2022-07-10T13:13:54;21.10;92.50
47310;DHT22;33046;52.270;6.832;2022-07-10T13:16:00;21.00;91.20
47310;DHT22;33046;52.270;6.832;2022-07-10T13:18:12;20.90;91.30
47310;DHT22;33046;52.270;6.832;2022-07-10T13:20:19;20.80;91.70
47310;DHT22;33046;52.270;6.832;2022-07-10T13:22:26;20.70;92.00
47310;DHT22;33046;52.270;6.832;2022-07-10T13:24:33;20.70;92.20
47310;DHT22;33046;52.270;6.832;2022-07-10T13:26:40;20.70;92.50
47310;DHT22;33046;52.270;6.832;2022-07-10T13:28:47;20.70;92.30
47310;DHT22;33046;52.270;6.832;2022-07-10T13:30:53;20.70;92.50
47310;DHT22;33046;52.270;6.832;2022-07-10T13:33:00;20.70;92.80